Terminal Aerodrome Forecast
Issued by NWS Albany, NY

Home | Current Version | Previous Version | Text Only | Print | Product List | Glossary On
Versions: 1 2 3 4 5 6 7 8 9 10 11 12 13 14 15 16 17 18 19 20 21 22 23
000
FTUS41 KALY 280300 AAC
TAFGFL
TAF AMD
KGFL 280300Z 2803/2824 03004KT 1 1/2SM -SN BR BKN018 OVC022
      TEMPO 2803/2804 3SM -SN BR OVC008
     FM280400 VRB02KT P6SM VCSH OVC035
     FM281400 31007KT P6SM BKN045=

USA.gov is the U.S. government's official web portal to all federal, state and local government web resources and services.